Glass Lake, New York
Current Conditions -  °F | °C
As of 2:51 AM on Monday 26 Jan 2015 (Local Time) from KALB Reporting Station
Broken Clouds Broken Clouds  
Wind Chill:   Ceiling: 20000
Heat Index: 11°   Visibility: 10mi
Dew Point: -1°   Wind: 6mph
Humidity: 59%   Direction: 350°N
Pressure: 30.11"   Gusts: NA
Location:  42.6497°N, 73.5273°W
Report Text: KALB 260751Z 35005KT 10SM FEW180 BKN200 BKN230 M12/M18 A3011 RMK AO2 SLP202 T11171183
Loading
Personal Weather Stations






























Interactive Weather Map New forecast layout! Learn more

10-Day Weather Forecast

Advertisements
Track Severe Weather on mobile